Time;durP1;ratioP1;P1;durP2;ratioP2;P2;SDS_P1;SDS_P2;PMS_P1;PMS_P2;Temp;Humidity;BMP_temperature;BMP_pressure;BME280_temperature;BME280_humidity;BME280_pressure;Samples;Min_cycle;Max_cycle;Signal;HPM_P1;HPM_P2
2021/01/20 00:01:10;;;;;;;;;;;;;;;9.08;100.00;99504.06;4987111;28;20322;-76
2021/01/20 00:03:35;;;;;;;;;;;;;;;9.05;100.00;99507.53;4973321;28;19941;-79
2021/01/20 00:06:01;;;;;;;;;;;;;;;9.08;100.00;99508.66;4964396;28;20028;-76
2021/01/20 00:08:27;;;;;;;;;;;;;;;9.02;100.00;99497.50;4947060;28;20062;-79
2021/01/20 00:10:52;;;;;;;;;;;;;;;9.08;100.00;99506.75;4956334;28;19965;-78
2021/01/20 00:13:18;;;;;;;;;;;;;;;9.16;100.00;99499.53;4957364;28;19915;-79
2021/01/20 00:15:43;;;;;;;;;;;;;;;9.08;100.00;99504.06;4940425;28;19914;-78
2021/01/20 00:18:09;;;;;;;;;;;;;;;9.12;100.00;99506.78;4961377;28;19913;-79
2021/01/20 00:20:34;;;;;;;;;;;;;;;9.16;100.00;99496.84;4956602;28;20383;-79
2021/01/20 00:23:00;;;;;;;;;;;;;;;9.04;100.00;99497.13;4973941;28;19917;-79
2021/01/20 00:25:25;;;;;;;;;;;;;;;8.99;100.00;99505.53;4955439;28;19918;-79
2021/01/20 00:27:50;;;;;;;;;;;;;;;8.99;100.00;99495.59;4955852;28;20397;-79
2021/01/20 00:30:16;;;;;;;;;;;;;;;8.96;100.00;99493.63;4956401;28;20437;-79
2021/01/20 00:32:42;;;;;;;;;;;;;;;9.03;100.00;99496.38;4967983;28;19961;-79
2021/01/20 00:35:08;;;;;;;;;;;;;;;8.94;100.00;99505.91;4970695;28;19969;-79
2021/01/20 00:37:34;;;;;;;;;;;;;;;8.92;100.00;99497.44;4951377;28;19922;-79
2021/01/20 00:39:59;;;;;;;;;;;;;;;8.89;100.00;99504.31;4973221;28;20488;-79
2021/01/20 00:42:25;;;;;;;;;;;;;;;8.84;100.00;99502.00;4975814;28;19952;-76
2021/01/20 00:44:50;;;;;;;;;;;;;;;8.90;100.00;99502.41;4956899;28;20390;-78
2021/01/20 00:47:16;;;;;;;;;;;;;;;8.88;100.00;99497.38;4955016;28;19922;-79
2021/01/20 00:49:41;;;;;;;;;;;;;;;8.86;100.00;99497.03;4954942;28;19915;-78
2021/01/20 00:52:07;;;;;;;;;;;;;;;8.76;100.00;99488.88;4956659;28;19918;-79
2021/01/20 00:54:32;;;;;;;;;;;;;;;8.74;100.00;99497.28;4953865;28;20387;-76
2021/01/20 00:56:57;;;;;;;;;;;;;;;8.72;100.00;99493.44;4962271;28;19937;-78
2021/01/20 00:59:23;;;;;;;;;;;;;;;8.72;100.00;99498.78;4974397;28;19929;-79
2021/01/20 01:01:48;;;;;;;;;;;;;;;8.67;100.00;99501.84;4955958;28;20009;-78
2021/01/20 01:04:25;;;;;;;;;;;;;;;8.71;100.00;99506.06;4965562;28;19925;-77
2021/01/20 01:06:51;;;;;;;;;;;;;;;8.67;100.00;99507.94;4957426;28;20322;-79
2021/01/20 01:09:17;;;;;;;;;;;;;;;8.49;100.00;99500.88;4950260;28;19921;-78
2021/01/20 01:11:42;;;;;;;;;;;;;;;8.53;100.00;99507.84;4958626;28;19910;-76
2021/01/20 01:14:09;;;;;;;;;;;;;;;8.53;100.00;99502.47;4989207;28;19917;-79
2021/01/20 01:16:53;;;;;;;;;;;;;;;8.56;100.00;99501.72;4984580;28;20028;-76
2021/01/20 01:19:33;;;;;;;;;;;;;;;8.49;100.00;99507.03;4944341;28;20005;-79
2021/01/20 01:21:58;;;;;;;;;;;;;;;8.52;100.00;99500.13;4958832;28;20004;-79
2021/01/20 01:24:25;;;;;;;;;;;;;;;8.49;100.00;99503.56;4958534;28;20346;-79
2021/01/20 01:26:51;;;;;;;;;;;;;;;8.51;100.00;99495.94;4988943;28;19925;-79
2021/01/20 01:29:17;;;;;;;;;;;;;;;8.41;100.00;99492.00;4981966;28;20271;-79
2021/01/20 01:31:52;;;;;;;;;;;;;;;8.47;100.00;99482.47;4954703;28;19914;-79
2021/01/20 01:34:19;;;;;;;;;;;;;;;8.36;100.00;99481.63;4981791;28;20286;-77
2021/01/20 01:36:45;;;;;;;;;;;;;;;8.47;100.00;99471.75;4974926;28;19911;-79
2021/01/20 01:39:29;;;;;;;;;;;;;;;8.45;100.00;99478.63;4971566;28;19968;-79
2021/01/20 01:41:54;;;;;;;;;;;;;;;8.50;100.00;99476.38;4985740;28;19914;-79
2021/01/20 01:44:20;;;;;;;;;;;;;;;8.45;100.00;99479.41;4958318;28;19948;-78
2021/01/20 01:46:56;;;;;;;;;;;;;;;8.48;100.00;99481.31;4959219;28;20013;-77
2021/01/20 01:49:30;;;;;;;;;;;;;;;8.40;100.00;99479.72;4942331;28;20334;-79
2021/01/20 01:51:58;;;;;;;;;;;;;;;8.20;100.00;99472.97;4959783;28;19914;-77
2021/01/20 01:54:44;;;;;;;;;;;;;;;8.20;100.00;99462.25;4976134;28;20446;-76
2021/01/20 01:57:35;;;;;;;;;;;;;;;8.15;100.00;99465.25;4964610;28;19918;-78
2021/01/20 02:00:01;;;;;;;;;;;;;;;8.08;100.00;99459.84;4976246;28;19913;-79
2021/01/20 02:02:40;;;;;;;;;;;;;;;8.16;100.00;99466.81;4971407;28;19921;-78
2021/01/20 02:05:07;;;;;;;;;;;;;;;8.09;100.00;99459.47;4960970;28;20283;-79
2021/01/20 02:07:37;;;;;;;;;;;;;;;8.05;100.00;99465.94;4991816;28;19929;-79
2021/01/20 02:10:04;;;;;;;;;;;;;;;8.13;100.00;99475.56;4993095;28;20313;-78
2021/01/20 02:12:49;;;;;;;;;;;;;;;8.03;100.00;99466.28;4946821;28;19914;-79
2021/01/20 02:15:19;;;;;;;;;;;;;;;8.09;100.00;99474.78;4980227;28;20361;-81
2021/01/20 02:17:47;;;;;;;;;;;;;;;8.05;100.00;99469.38;4975236;28;19965;-79
2021/01/20 02:20:34;;;;;;;;;;;;;;;8.11;100.00;99462.53;4961237;28;19979;-78
2021/01/20 02:23:06;;;;;;;;;;;;;;;8.07;100.00;99472.44;4983399;28;19961;-77
2021/01/20 02:25:56;;;;;;;;;;;;;;;8.09;100.00;99464.81;4979594;28;19992;-78
2021/01/20 02:28:47;;;;;;;;;;;;;;;7.98;100.00;99458.59;4984415;28;19914;-79
2021/01/20 02:31:23;;;;;;;;;;;;;;;7.88;100.00;99463.81;4955840;28;19952;-79
2021/01/20 02:33:51;;;;;;;;;;;;;;;8.00;100.00;99463.56;4958015;28;19918;-79
2021/01/20 02:36:23;;;;;;;;;;;;;;;8.01;100.00;99462.44;4957234;28;19917;-78
2021/01/20 02:39:07;;;;;;;;;;;;;;;7.98;100.00;99466.63;4962986;28;19929;-76
2021/01/20 02:41:34;;;;;;;;;;;;;;;7.91;100.00;99463.09;4956682;28;20778;-77
2021/01/20 02:44:10;;;;;;;;;;;;;;;7.95;100.00;99462.00;4943671;28;19914;-78
2021/01/20 02:46:48;;;;;;;;;;;;;;;7.90;100.00;99465.00;4965870;28;20001;-78
2021/01/20 02:49:28;;;;;;;;;;;;;;;7.92;100.00;99464.63;4952494;28;19977;-79
2021/01/20 02:51:57;;;;;;;;;;;;;;;7.89;100.00;99471.50;4936658;28;19945;-79
2021/01/20 02:54:42;;;;;;;;;;;;;;;7.93;100.00;99472.31;4978548;28;19920;-79
2021/01/20 02:57:28;;;;;;;;;;;;;;;7.98;100.00;99471.19;4988835;28;20429;-79
2021/01/20 03:00:01;;;;;;;;;;;;;;;7.90;100.00;99477.63;4953687;28;19918;-79
2021/01/20 03:02:36;;;;;;;;;;;;;;;7.90;100.00;99474.94;4987158;28;19914;-79
2021/01/20 03:05:01;;;;;;;;;;;;;;;7.81;100.00;99472.56;4968622;28;19914;-78
2021/01/20 03:07:28;;;;;;;;;;;;;;;7.77;100.00;99460.25;4956022;28;19968;-79
2021/01/20 03:09:55;;;;;;;;;;;;;;;7.72;100.00;99473.97;4967485;28;20378;-79
2021/01/20 03:12:26;;;;;;;;;;;;;;;7.77;100.00;99473.63;4955313;28;19914;-78
2021/01/20 03:14:52;;;;;;;;;;;;;;;7.84;100.00;99455.72;4973731;28;20290;-76
2021/01/20 03:17:18;;;;;;;;;;;;;;;7.87;100.00;99457.69;4971165;28;19937;-78
2021/01/20 03:19:43;;;;;;;;;;;;;;;7.73;100.00;99449.47;4971461;28;20012;-77
2021/01/20 03:22:08;;;;;;;;;;;;;;;7.75;100.00;99462.50;4973855;28;19921;-78
2021/01/20 03:24:34;;;;;;;;;;;;;;;7.65;100.00;99452.44;4974359;28;19921;-77
2021/01/20 03:26:59;;;;;;;;;;;;;;;7.63;100.00;99463.53;4969435;28;19925;-78
2021/01/20 03:29:24;;;;;;;;;;;;;;;7.67;100.00;99461.66;4982569;28;19917;-78
2021/01/20 03:31:49;;;;;;;;;;;;;;;7.74;100.00;99455.63;4973306;28;19913;-78
2021/01/20 03:34:15;;;;;;;;;;;;;;;7.57;100.00;99454.25;4998671;28;19917;-78
2021/01/20 03:36:40;;;;;;;;;;;;;;;7.60;100.00;99450.09;4980451;28;19934;-78
2021/01/20 03:39:05;;;;;;;;;;;;;;;7.59;100.00;99453.91;4963555;28;19968;-76
2021/01/20 03:41:31;;;;;;;;;;;;;;;7.70;100.00;99444.09;4985360;28;19933;-78
2021/01/20 03:43:56;;;;;;;;;;;;;;;7.78;100.00;99443.78;4954869;28;20299;-78
2021/01/20 03:46:21;;;;;;;;;;;;;;;7.79;100.00;99442.66;4952953;28;20286;-78
2021/01/20 03:48:47;;;;;;;;;;;;;;;7.61;100.00;99438.22;4969695;28;19921;-78
2021/01/20 03:51:12;;;;;;;;;;;;;;;7.71;100.00;99434.91;4953730;28;20001;-77
2021/01/20 03:53:37;;;;;;;;;;;;;;;7.70;100.00;99430.69;4963194;28;19915;-78
2021/01/20 03:56:03;;;;;;;;;;;;;;;7.68;100.00;99432.97;4983494;28;19941;-78
2021/01/20 03:58:28;;;;;;;;;;;;;;;7.39;100.00;99429.19;4974247;28;20394;-78
2021/01/20 04:00:53;;;;;;;;;;;;;;;7.37;100.00;99412.69;4976780;28;19913;-78
2021/01/20 04:03:19;;;;;;;;;;;;;;;7.26;100.00;99411.78;4956899;28;19921;-75
2021/01/20 04:06:09;;;;;;;;;;;;;;;7.54;100.00;99416.72;4955821;28;19925;-76
2021/01/20 04:08:34;;;;;;;;;;;;;;;7.48;100.00;99420.84;4950219;28;20375;-76
2021/01/20 04:11:00;;;;;;;;;;;;;;;7.43;100.00;99405.13;4958686;28;20418;-77
2021/01/20 04:13:25;;;;;;;;;;;;;;;7.54;100.00;99408.69;4953926;28;19914;-76
2021/01/20 04:15:51;;;;;;;;;;;;;;;7.58;100.00;99421.00;4952104;28;19910;-76
2021/01/20 04:18:16;;;;;;;;;;;;;;;7.55;100.00;99407.56;4968277;28;19919;-76
2021/01/20 04:20:42;;;;;;;;;;;;;;;7.50;100.00;99405.19;4939608;28;19965;-76
2021/01/20 04:23:07;;;;;;;;;;;;;;;7.49;100.00;99401.72;4960320;28;19913;-76
2021/01/20 04:25:33;;;;;;;;;;;;;;;7.47;100.00;99401.31;4955419;28;19930;-77
2021/01/20 04:27:58;;;;;;;;;;;;;;;7.50;100.00;99400.59;4951385;28;19922;-76
2021/01/20 04:30:23;;;;;;;;;;;;;;;7.54;100.00;99403.31;4970299;28;19921;-75
2021/01/20 04:32:49;;;;;;;;;;;;;;;7.52;100.00;99400.25;4962332;28;20379;-76
2021/01/20 04:35:14;;;;;;;;;;;;;;;7.24;100.00;99406.00;4963664;28;20011;-77
2021/01/20 04:37:40;;;;;;;;;;;;;;;7.35;100.00;99395.44;4946154;28;19936;-76
2021/01/20 04:40:05;;;;;;;;;;;;;;;7.37;100.00;99401.22;4955034;28;19921;-77
2021/01/20 04:42:31;;;;;;;;;;;;;;;7.47;100.00;99403.25;4956648;28;19961;-76
2021/01/20 04:44:57;;;;;;;;;;;;;;;7.57;100.00;99400.69;4960716;28;19914;-77
2021/01/20 04:47:22;;;;;;;;;;;;;;;7.30;100.00;99396.53;4962251;28;20007;-76
2021/01/20 04:49:50;;;;;;;;;;;;;;;7.41;100.00;99392.09;4966572;28;19928;-76
2021/01/20 04:52:17;;;;;;;;;;;;;;;7.36;100.00;99403.09;4943477;28;19918;-76
2021/01/20 04:54:44;;;;;;;;;;;;;;;7.39;100.00;99393.59;4968104;28;19953;-77
2021/01/20 04:57:10;;;;;;;;;;;;;;;7.29;100.00;99392.31;4955839;28;19914;-76
2021/01/20 04:59:36;;;;;;;;;;;;;;;7.27;100.00;99386.56;4979461;28;19960;-76
2021/01/20 05:02:01;;;;;;;;;;;;;;;7.30;100.00;99381.25;4984084;28;19957;-76
2021/01/20 05:04:27;;;;;;;;;;;;;;;7.37;100.00;99369.84;4945737;28;19980;-77
2021/01/20 05:06:53;;;;;;;;;;;;;;;7.17;100.00;99387.97;4998062;28;19918;-76
2021/01/20 05:09:19;;;;;;;;;;;;;;;7.26;100.00;99371.63;4968591;28;19926;-76
2021/01/20 05:11:45;;;;;;;;;;;;;;;7.26;100.00;99371.63;4956896;28;19960;-76
2021/01/20 05:14:14;;;;;;;;;;;;;;;7.26;100.00;99363.59;4963836;28;20390;-76
2021/01/20 05:16:40;;;;;;;;;;;;;;;7.30;100.00;99373.22;4952243;28;19913;-77
2021/01/20 05:19:06;;;;;;;;;;;;;;;7.22;100.00;99358.19;4957351;28;19914;-76
2021/01/20 05:21:31;;;;;;;;;;;;;;;7.32;100.00;99366.72;4967917;28;19982;-77
2021/01/20 05:24:12;;;;;;;;;;;;;;;7.28;100.00;99354.06;4958471;28;19920;-77
2021/01/20 05:26:44;;;;;;;;;;;;;;;7.19;100.00;99358.16;4950769;28;19918;-76
2021/01/20 05:29:09;;;;;;;;;;;;;;;7.26;100.00;99348.28;4947561;28;19914;-75
2021/01/20 05:31:34;;;;;;;;;;;;;;;7.18;100.00;99357.38;4961844;28;20360;-75
2021/01/20 05:34:00;;;;;;;;;;;;;;;7.17;100.00;99355.84;4958010;28;19969;-76
2021/01/20 05:36:25;;;;;;;;;;;;;;;7.27;100.00;99346.41;4962052;28;20379;-78
2021/01/20 05:38:51;;;;;;;;;;;;;;;7.24;100.00;99342.53;4942044;28;20418;-76
2021/01/20 05:41:23;;;;;;;;;;;;;;;7.11;100.00;99343.91;4957151;28;20263;-76
2021/01/20 05:43:50;;;;;;;;;;;;;;;6.94;100.00;99344.47;4972013;28;19960;-76
2021/01/20 05:46:34;;;;;;;;;;;;;;;7.15;100.00;99349.31;4958259;28;20443;-76
2021/01/20 05:48:59;;;;;;;;;;;;;;;7.16;100.00;99342.84;4969557;28;20023;-76
2021/01/20 05:51:25;;;;;;;;;;;;;;;7.19;100.00;99339.41;4969712;28;20405;-76
2021/01/20 05:53:55;;;;;;;;;;;;;;;7.19;100.00;99339.41;4960604;28;19919;-76
2021/01/20 05:56:24;;;;;;;;;;;;;;;7.18;100.00;99354.69;4957142;28;20298;-76
2021/01/20 05:58:50;;;;;;;;;;;;;;;7.07;100.00;99348.44;4958179;28;19920;-77
2021/01/20 06:01:15;;;;;;;;;;;;;;;6.96;100.00;99347.53;4989464;28;19917;-76
2021/01/20 06:03:40;;;;;;;;;;;;;;;7.06;100.00;99346.13;4960420;28;19914;-76
2021/01/20 06:06:06;;;;;;;;;;;;;;;7.05;100.00;99348.03;4952587;28;19928;-76
2021/01/20 06:08:33;;;;;;;;;;;;;;;6.96;100.00;99339.50;4959033;28;20375;-77
2021/01/20 06:10:59;;;;;;;;;;;;;;;7.10;100.00;99342.34;4966765;28;19996;-77
2021/01/20 06:13:24;;;;;;;;;;;;;;;7.20;100.00;99339.03;4952844;28;20474;-76
2021/01/20 06:15:53;;;;;;;;;;;;;;;7.26;100.00;99344.84;4961667;28;20009;-77
2021/01/20 06:18:21;;;;;;;;;;;;;;;7.17;100.00;99339.78;4981279;28;19914;-76
2021/01/20 06:20:47;;;;;;;;;;;;;;;7.21;100.00;99343.28;4969112;28;19925;-76
2021/01/20 06:23:16;;;;;;;;;;;;;;;7.15;100.00;99338.59;4952972;28;19914;-76
2021/01/20 06:25:43;;;;;;;;;;;;;;;7.20;100.00;99332.94;4968112;28;20080;-76
2021/01/20 06:28:09;;;;;;;;;;;;;;;7.07;100.00;99336.97;4960776;28;19922;-76
2021/01/20 06:30:38;;;;;;;;;;;;;;;7.02;100.00;99332.72;4941508;28;19921;-77
2021/01/20 06:33:08;;;;;;;;;;;;;;;6.83;100.00;99335.50;4983933;28;19914;-76
2021/01/20 06:35:43;;;;;;;;;;;;;;;6.90;100.00;99332.16;4959789;28;19918;-77
2021/01/20 06:38:27;;;;;;;;;;;;;;;7.01;100.00;99335.72;4956693;28;19921;-76
2021/01/20 06:40:56;;;;;;;;;;;;;;;6.85;100.00;99343.19;4950374;28;19926;-78
2021/01/20 06:43:34;;;;;;;;;;;;;;;6.98;100.00;99337.25;4971744;28;19970;-77
2021/01/20 06:46:20;;;;;;;;;;;;;;;6.86;100.00;99336.69;4978025;28;19917;-77
2021/01/20 06:49:06;;;;;;;;;;;;;;;6.67;100.00;99324.22;4959536;28;19937;-77
2021/01/20 06:51:33;;;;;;;;;;;;;;;6.82;100.00;99330.53;4980797;28;19944;-76
2021/01/20 06:54:01;;;;;;;;;;;;;;;6.95;100.00;99323.84;4956616;28;20354;-75
2021/01/20 06:56:34;;;;;;;;;;;;;;;6.88;100.00;99329.06;4960935;28;19917;-77
2021/01/20 06:59:18;;;;;;;;;;;;;;;6.88;100.00;99329.84;4946551;28;20409;-76
2021/01/20 07:02:02;;;;;;;;;;;;;;;6.99;100.00;99335.31;4980916;28;19914;-76
2021/01/20 07:04:36;;;;;;;;;;;;;;;6.93;100.00;99332.19;4971250;28;19914;-78
2021/01/20 07:07:11;;;;;;;;;;;;;;;7.00;100.00;99326.19;4974479;28;19925;-78
2021/01/20 07:09:49;;;;;;;;;;;;;;;7.07;100.00;99327.03;4938236;28;20794;-78
2021/01/20 07:12:16;;;;;;;;;;;;;;;7.14;100.00;99321.75;4977505;28;19920;-78
2021/01/20 07:14:43;;;;;;;;;;;;;;;7.16;100.00;99329.44;4975333;28;19917;-77
2021/01/20 07:17:09;;;;;;;;;;;;;;;7.14;100.00;99324.44;4949530;28;19914;-77
2021/01/20 07:19:37;;;;;;;;;;;;;;;7.02;100.00;99318.56;4954744;28;19914;-77
2021/01/20 07:22:03;;;;;;;;;;;;;;;7.06;100.00;99325.50;4965233;28;19914;-76
2021/01/20 07:24:29;;;;;;;;;;;;;;;7.15;100.00;99312.59;4953706;28;20393;-77
2021/01/20 07:26:54;;;;;;;;;;;;;;;7.09;100.00;99308.72;4979362;28;20423;-77
2021/01/20 07:29:24;;;;;;;;;;;;;;;7.16;100.00;99316.81;4952900;28;19968;-77
2021/01/20 07:31:50;;;;;;;;;;;;;;;7.04;100.00;99306.38;4953411;28;19945;-78
2021/01/20 07:34:17;;;;;;;;;;;;;;;7.04;100.00;99316.28;4950131;28;19918;-77
2021/01/20 07:36:42;;;;;;;;;;;;;;;7.09;100.00;99303.34;4970918;28;19964;-76
2021/01/20 07:39:20;;;;;;;;;;;;;;;7.09;100.00;99292.66;4951984;28;20395;-76
2021/01/20 07:41:52;;;;;;;;;;;;;;;7.09;100.00;99294.53;4968905;28;20338;-76
2021/01/20 07:44:18;;;;;;;;;;;;;;;7.07;100.00;99294.91;4953064;28;19953;-77
2021/01/20 07:46:43;;;;;;;;;;;;;;;7.24;100.00;99298.91;4971127;28;19992;-76
2021/01/20 07:49:10;;;;;;;;;;;;;;;7.20;100.00;99298.88;4975580;28;19914;-77
2021/01/20 07:51:35;;;;;;;;;;;;;;;7.21;100.00;99297.00;4972511;28;19914;-77
2021/01/20 07:54:04;;;;;;;;;;;;;;;7.22;100.00;99290.47;4952560;28;19980;-76
2021/01/20 07:56:30;;;;;;;;;;;;;;;7.34;100.00;99292.91;4966282;28;19957;-78
2021/01/20 07:58:56;;;;;;;;;;;;;;;7.38;100.00;99291.06;4959155;28;19930;-76
2021/01/20 08:01:29;;;;;;;;;;;;;;;7.32;100.00;99292.50;4954622;28;20027;-76
2021/01/20 08:03:56;;;;;;;;;;;;;;;7.34;100.00;99289.50;4975380;28;20379;-76
2021/01/20 08:06:21;;;;;;;;;;;;;;;7.40;100.00;99288.00;4943794;28;19914;-78
2021/01/20 08:08:54;;;;;;;;;;;;;;;7.30;100.00;99290.22;4969767;28;19921;-76
2021/01/20 08:11:20;;;;;;;;;;;;;;;7.41;100.00;99298.38;4981992;28;19914;-78
2021/01/20 08:13:46;;;;;;;;;;;;;;;7.45;100.00;99299.19;4973229;28;19921;-76
2021/01/20 08:16:12;;;;;;;;;;;;;;;7.43;100.00;99295.31;4977902;28;19977;-76
2021/01/20 08:18:38;;;;;;;;;;;;;;;7.51;100.00;99296.94;4990192;28;19921;-76
2021/01/20 08:21:06;;;;;;;;;;;;;;;7.39;100.00;99295.28;4959171;28;19917;-76
2021/01/20 08:23:41;;;;;;;;;;;;;;;7.47;100.00;99302.22;4967509;28;19968;-76
2021/01/20 08:26:07;;;;;;;;;;;;;;;7.55;100.00;99295.06;4979920;28;19922;-77
2021/01/20 08:28:32;;;;;;;;;;;;;;;7.59;100.00;99291.25;4961876;28;19914;-76
2021/01/20 08:30:58;;;;;;;;;;;;;;;7.51;100.00;99291.59;4946144;28;19914;-77
2021/01/20 08:33:23;;;;;;;;;;;;;;;7.57;100.00;99292.78;4971600;28;20762;-77
2021/01/20 08:35:58;;;;;;;;;;;;;;;7.47;100.00;99296.88;4956722;28;19953;-76
2021/01/20 08:38:27;;;;;;;;;;;;;;;7.74;100.00;99300.22;4953477;28;20298;-77
2021/01/20 08:41:19;;;;;;;;;;;;;;;7.78;100.00;99290.31;4956040;28;19914;-77
2021/01/20 08:43:44;;;;;;;;;;;;;;;7.91;100.00;99295.03;4924376;28;19921;-76
2021/01/20 08:46:23;;;;;;;;;;;;;;;7.73;100.00;99293.31;4941025;28;19922;-76
2021/01/20 08:48:55;;;;;;;;;;;;;;;7.83;100.00;99298.00;4963984;28;19914;-77
2021/01/20 08:51:21;;;;;;;;;;;;;;;7.89;100.00;99297.31;4971852;28;20032;-77
2021/01/20 08:53:46;;;;;;;;;;;;;;;7.93;100.00;99292.75;4943462;28;20009;-76
2021/01/20 08:56:12;;;;;;;;;;;;;;;7.90;100.00;99298.81;4978801;28;19914;-77
2021/01/20 08:58:37;;;;;;;;;;;;;;;7.94;100.00;99293.50;4973835;28;19914;-76
2021/01/20 09:01:04;;;;;;;;;;;;;;;7.99;100.00;99298.53;4983814;28;19914;-76
2021/01/20 09:03:30;;;;;;;;;;;;;;;7.90;100.00;99295.38;4956961;28;19972;-77
2021/01/20 09:05:57;;;;;;;;;;;;;;;8.06;100.00;99296.69;4959904;28;19957;-77
2021/01/20 09:08:23;;;;;;;;;;;;;;;8.04;100.00;99298.97;4963063;28;19953;-75
2021/01/20 09:10:49;;;;;;;;;;;;;;;7.98;100.00;99289.72;4983319;28;20686;-77
2021/01/20 09:13:16;;;;;;;;;;;;;;;8.00;100.00;99287.44;4948909;28;19924;-79
2021/01/20 09:15:41;;;;;;;;;;;;;;;8.04;100.00;99293.59;4938742;28;19921;-77
2021/01/20 09:18:06;;;;;;;;;;;;;;;8.03;100.00;99292.03;4967966;28;19914;-78
2021/01/20 09:20:35;;;;;;;;;;;;;;;8.06;100.00;99293.22;4943045;28;20017;-77
2021/01/20 09:23:01;;;;;;;;;;;;;;;8.16;100.00;99287.94;4966181;28;20342;-77
2021/01/20 09:25:27;;;;;;;;;;;;;;;8.17;100.00;99284.13;4997932;28;19913;-78
2021/01/20 09:27:52;;;;;;;;;;;;;;;8.20;100.00;99291.44;4945445;29;19974;-78
2021/01/20 09:30:18;;;;;;;;;;;;;;;8.18;100.00;99283.00;4971511;28;20288;-79
2021/01/20 09:32:43;;;;;;;;;;;;;;;8.23;100.00;99276.50;4962781;28;19914;-78
2021/01/20 09:35:14;;;;;;;;;;;;;;;8.30;100.00;99284.63;4974912;28;19921;-79
2021/01/20 09:37:40;;;;;;;;;;;;;;;8.28;100.00;99276.19;4952717;28;19926;-78
2021/01/20 09:40:07;;;;;;;;;;;;;;;8.34;100.00;99288.09;4937500;28;19946;-78
2021/01/20 09:42:34;;;;;;;;;;;;;;;8.39;100.00;99285.06;4953375;28;19914;-78
2021/01/20 09:44:59;;;;;;;;;;;;;;;8.51;100.00;99290.13;4957089;28;19918;-77
2021/01/20 09:47:24;;;;;;;;;;;;;;;8.53;100.00;99281.69;4959744;28;19929;-79
2021/01/20 09:49:50;;;;;;;;;;;;;;;8.50;100.00;99280.53;4955495;28;19920;-75
2021/01/20 09:52:17;;;;;;;;;;;;;;;8.61;100.00;99284.06;4954549;28;19925;-78
2021/01/20 09:54:43;;;;;;;;;;;;;;;8.57;100.00;99282.50;4957668;28;19925;-78
2021/01/20 09:57:09;;;;;;;;;;;;;;;8.58;100.00;99279.44;4988505;28;19914;-78
2021/01/20 09:59:34;;;;;;;;;;;;;;;8.61;100.00;99275.25;4947098;28;20016;-78
2021/01/20 10:01:59;;;;;;;;;;;;;;;8.63;100.00;99275.63;4958350;28;19922;-78
2021/01/20 10:04:25;;;;;;;;;;;;;;;8.65;99.68;99281.41;4987270;28;19910;-80
2021/01/20 10:06:50;;;;;;;;;;;;;;;8.69;99.34;99282.94;4985964;28;19917;-78
2021/01/20 10:09:16;;;;;;;;;;;;;;;8.67;99.03;99276.44;4963110;28;19914;-76
2021/01/20 10:11:42;;;;;;;;;;;;;;;8.66;98.46;99274.88;4982891;28;20018;-77
2021/01/20 10:14:08;;;;;;;;;;;;;;;8.84;98.38;99276.50;4962730;28;19914;-79
2021/01/20 10:16:33;;;;;;;;;;;;;;;8.84;97.42;99275.75;4970997;28;19917;-79
2021/01/20 10:18:58;;;;;;;;;;;;;;;8.84;97.57;99265.78;4967670;28;19938;-78
2021/01/20 10:21:24;;;;;;;;;;;;;;;8.93;97.94;99270.78;4949387;28;19936;-78
2021/01/20 10:23:49;;;;;;;;;;;;;;;8.87;96.75;99262.31;4980115;28;19918;-78
2021/01/20 10:26:15;;;;;;;;;;;;;;;8.85;97.01;99259.25;4977190;28;19949;-78
2021/01/20 10:28:42;;;;;;;;;;;;;;;8.81;96.26;99253.09;4970604;28;21221;-78
2021/01/20 10:31:08;;;;;;;;;;;;;;;8.87;96.00;99243.53;4953106;28;19929;-77
2021/01/20 10:33:33;;;;;;;;;;;;;;;8.91;96.73;99263.13;4968278;28;19917;-78
2021/01/20 10:35:59;;;;;;;;;;;;;;;8.92;95.79;99242.41;4963787;28;19933;-75
2021/01/20 10:38:24;;;;;;;;;;;;;;;9.11;95.60;99244.78;4961489;28;20575;-77
2021/01/20 10:40:50;;;;;;;;;;;;;;;9.16;95.47;99246.31;4990184;28;20004;-78
2021/01/20 10:43:15;;;;;;;;;;;;;;;9.08;95.32;99238.25;4974351;28;19918;-78
2021/01/20 10:45:40;;;;;;;;;;;;;;;9.06;95.79;99240.53;4975869;28;19921;-77
2021/01/20 10:48:06;;;;;;;;;;;;;;;9.13;95.52;99255.91;4956367;28;20009;-78
2021/01/20 10:50:31;;;;;;;;;;;;;;;9.06;95.96;99234.38;4967945;28;20383;-78
2021/01/20 10:52:57;;;;;;;;;;;;;;;9.01;96.31;99264.31;4967792;28;19914;-77
2021/01/20 10:55:22;;;;;;;;;;;;;;;9.06;95.75;99240.53;4970331;28;19924;-79
2021/01/20 10:57:47;;;;;;;;;;;;;;;9.06;95.22;99239.75;4973278;28;19917;-78
2021/01/20 11:00:13;;;;;;;;;;;;;;;9.12;95.65;99238.25;4981010;28;19920;-78
2021/01/20 11:02:38;;;;;;;;;;;;;;;9.09;95.63;99233.66;4960615;28;20291;-77
2021/01/20 11:05:04;;;;;;;;;;;;;;;9.08;95.82;99227.50;4968413;28;19977;-77
2021/01/20 11:07:29;;;;;;;;;;;;;;;9.12;95.12;99221.38;4943383;28;19933;-77
2021/01/20 11:09:56;;;;;;;;;;;;;;;9.20;95.43;99231.75;4944746;28;19917;-77
2021/01/20 11:12:22;;;;;;;;;;;;;;;9.23;95.38;99224.84;4966153;28;19952;-78
2021/01/20 11:14:48;;;;;;;;;;;;;;;9.31;95.52;99224.47;4973295;28;20298;-78
2021/01/20 11:17:13;;;;;;;;;;;;;;;9.22;93.75;99231.38;4968325;28;19959;-78
2021/01/20 11:19:39;;;;;;;;;;;;;;;9.24;93.91;99235.22;4990831;28;20001;-77
2021/01/20 11:22:07;;;;;;;;;;;;;;;9.34;94.43;99233.69;4949352;28;19921;-76
2021/01/20 11:24:33;;;;;;;;;;;;;;;9.34;93.85;99222.94;4951863;28;19960;-77
2021/01/20 11:26:58;;;;;;;;;;;;;;;9.40;94.06;99229.50;4944617;29;19926;-78
2021/01/20 11:29:24;;;;;;;;;;;;;;;9.39;93.93;99220.66;4959974;28;19980;-77
2021/01/20 11:31:50;;;;;;;;;;;;;;;9.43;94.23;99226.81;4962303;28;19917;-78
2021/01/20 11:34:15;;;;;;;;;;;;;;;9.44;93.70;99222.19;4977400;28;20397;-78
2021/01/20 11:36:41;;;;;;;;;;;;;;;9.43;94.10;99220.66;4984314;28;19918;-76
2021/01/20 11:39:06;;;;;;;;;;;;;;;9.49;94.15;99222.59;4991467;28;19914;-77
2021/01/20 11:41:32;;;;;;;;;;;;;;;9.61;93.51;99219.53;4964740;28;19921;-75
2021/01/20 11:43:57;;;;;;;;;;;;;;;9.51;93.58;99222.19;4942840;28;20330;-76
2021/01/20 11:46:22;;;;;;;;;;;;;;;9.58;93.86;99208.78;4953729;28;19918;-77
2021/01/20 11:48:48;;;;;;;;;;;;;;;9.57;93.58;99212.63;4989633;28;19914;-78
2021/01/20 11:51:14;;;;;;;;;;;;;;;9.52;94.33;99213.00;4952388;28;19968;-77
2021/01/20 11:53:39;;;;;;;;;;;;;;;9.62;94.25;99210.31;4957348;28;19914;-78
2021/01/20 11:56:05;;;;;;;;;;;;;;;9.52;94.36;99210.31;4981885;28;19914;-78
2021/01/20 11:58:30;;;;;;;;;;;;;;;9.48;95.23;99204.94;4946367;28;20024;-77
2021/01/20 12:00:56;;;;;;;;;;;;;;;9.60;94.85;99203.81;4957151;28;19966;-77
2021/01/20 12:03:23;;;;;;;;;;;;;;;9.68;94.77;99202.63;4974329;28;19917;-76
2021/01/20 12:05:52;;;;;;;;;;;;;;;9.69;94.53;99196.88;4956597;28;19928;-77
2021/01/20 12:08:18;;;;;;;;;;;;;;;9.70;95.43;99203.00;4981949;28;19914;-77
2021/01/20 12:10:43;;;;;;;;;;;;;;;9.76;95.12;99207.63;4974685;28;19918;-78
2021/01/20 12:13:11;;;;;;;;;;;;;;;9.78;94.65;99201.88;4940813;28;19914;-78
2021/01/20 12:15:36;;;;;;;;;;;;;;;9.74;94.97;99193.03;4958505;28;19972;-77
2021/01/20 12:18:02;;;;;;;;;;;;;;;9.78;95.13;99196.47;4987954;28;20368;-77
2021/01/20 12:20:27;;;;;;;;;;;;;;;9.76;95.44;99186.13;4972978;28;19964;-78
2021/01/20 12:22:53;;;;;;;;;;;;;;;9.85;94.81;99185.75;4985543;28;19914;-77
2021/01/20 12:25:18;;;;;;;;;;;;;;;9.88;95.34;99180.38;4970612;28;19956;-77
2021/01/20 12:27:44;;;;;;;;;;;;;;;9.90;95.08;99170.00;4969022;28;19918;-77
2021/01/20 12:30:11;;;;;;;;;;;;;;;9.87;95.40;99178.81;4976754;28;20000;-77
2021/01/20 12:32:37;;;;;;;;;;;;;;;9.88;95.57;99179.59;4951474;28;19914;-78
2021/01/20 12:35:03;;;;;;;;;;;;;;;9.98;95.36;99176.13;4934878;28;19914;-77
2021/01/20 12:37:28;;;;;;;;;;;;;;;9.98;95.29;99162.69;4961105;28;20336;-78
2021/01/20 12:39:57;;;;;;;;;;;;;;;9.96;95.46;99181.13;4982978;28;19969;-77
2021/01/20 12:42:23;;;;;;;;;;;;;;;9.99;95.33;99177.63;4973913;28;19918;-78
2021/01/20 12:44:48;;;;;;;;;;;;;;;9.99;95.21;99169.56;4978352;28;19913;-76
2021/01/20 12:47:13;;;;;;;;;;;;;;;9.92;95.67;99170.38;4964996;28;20398;-77
2021/01/20 12:49:39;;;;;;;;;;;;;;;10.00;95.83;99163.06;4943257;28;19997;-76
2021/01/20 12:52:04;;;;;;;;;;;;;;;10.06;96.19;99168.81;4963642;28;19918;-77